Latest Weather Observations for Roxby Downs

IDS60801

Issued at 2:01 pm CST Friday 27 May 2016 (issued every 30 minutes, with the page automatically refreshed every 10 minutes)

About weather observations | Map of weather stations | Latest weather observations for SA | Other Formats
Station Details ID: 016096 Name: OLYMPIC DAM AERODROME Lat: -30.48 Lon: 136.88 Height: 98.5 m
Data from the previous 72 hours. | See also: Recent months at Roxby Downs
Date/Time
CST
Temp
°C
App
Temp
°C
Dew
Point
Rel
Hum
%
Delta-T
°C
Wind Press
QNH
hPa
Press
MSL
hPa
Rain
since 9 am
mm
Dir
 
Spd
km/h
Gust
km/h
Spd
kts
Gust
kts
27/02:00pm 18.7 12.4 5.5 42 6.5 W 28 41 15 22 1014.4 1014.3 0.0
27/01:30pm 18.6 12.2 5.1 41 6.6 WSW 28 39 15 21 1014.7 1014.6 0.0
27/01:00pm 18.2 12.5 5.1 42 6.3 W 24 37 13 20 1015.2 1015.2 0.0
27/12:30pm 18.2 12.3 7.3 49 5.5 WSW 28 37 15 20 1015.7 1015.7 0.0
27/12:00pm 17.9 12.5 7.9 52 5.1 WSW 26 39 14 21 1016.2 1016.1 0.0
27/11:30am 17.5 11.7 8.1 54 4.8 WSW 28 41 15 22 1016.6 1016.5 0.0
27/11:00am 17.0 11.8 8.9 59 4.2 WSW 26 35 14 19 1016.7 1016.6 0.0
27/10:30am 15.9 11.3 9.6 66 3.3 WSW 24 30 13 16 1016.7 1016.6 0.0
27/10:00am 14.9 10.7 9.9 72 2.6 WSW 22 33 12 18 1017.0 1016.9 0.0
27/09:30am 14.1 10.4 10.1 77 2.1 W 20 30 11 16 1016.8 1016.7 0.0
27/09:00am 13.0 9.8 10.0 82 1.5 W 17 28 9 15 1016.8 1016.7 0.2
27/08:30am 12.1 9.6 9.7 85 1.2 WNW 13 22 7 12 1016.7 1016.6 0.2
27/08:00am 11.5 8.9 9.4 87 1.1 WNW 13 15 7 8 1016.5 1016.4 0.2
27/07:30am 10.2 8.3 9.0 92 0.6 WNW 9 13 5 7 1016.2 1016.1 0.2
27/07:00am 9.4 7.8 8.2 92 0.6 WNW 6 9 3 5 1016.0 1015.9 0.2
27/06:30am 9.7 8.0 8.5 92 0.6 WNW 7 9 4 5 1015.8 1015.8 0.2
27/06:00am 9.8 7.7 8.4 91 0.7 WNW 9 11 5 6 1015.4 1015.4 0.2
27/05:30am 10.1 8.1 8.7 91 0.7 W 9 11 5 6 1015.1 1015.1 0.2
27/05:00am 10.3 8.0 8.9 91 0.7 W 11 13 6 7 1015.0 1015.0 0.2
27/04:30am 10.4 8.1 9.0 91 0.7 WNW 11 11 6 6 1015.0 1015.0 0.2
27/04:00am 10.0 8.0 8.6 91 0.7 W 9 11 5 6 1014.9 1014.9 0.2
27/03:30am 10.4 8.8 8.8 90 0.8 W 7 9 4 5 1014.9 1014.9 0.2
27/03:00am 11.2 9.4 9.5 89 0.9 W 9 11 5 6 1015.0 1015.0 0.2
27/02:30am 11.5 10.2 9.8 89 0.9 W 7 9 4 5 1015.2 1015.2 0.2
27/02:00am 12.1 10.4 10.0 87 1.1 W 9 11 5 6 1015.0 1015.0 0.2
27/01:30am 12.6 11.3 10.0 84 1.3 WNW 7 9 4 5 1014.7 1014.6 0.2
27/01:00am 13.2 12.0 10.2 82 1.6 W 7 9 4 5 1015.0 1015.0 0.2
27/12:30am 13.5 11.9 10.1 80 1.8 WSW 9 11 5 6 1015.0 1015.0 0.2
27/12:00am 13.7 11.8 10.5 81 1.7 WSW 11 13 6 7 1015.2 1015.2 0.2
 
Date/Time
CST
Temp
°C
App
Temp
°C
Dew
Point
Rel
Hum
%
Delta-T
°C
Wind Press
QNH
hPa
Press
MSL
hPa
Rain
since 9 am
mm
Dir
 
Spd
km/h
Gust
km/h
Spd
kts
Gust
kts
26/11:30pm 13.4 12.0 10.9 85 1.3 W 9 13 5 7 1015.2 1015.2 0.2
26/11:00pm 13.2 12.2 11.1 87 1.1 W 7 9 4 5 1014.8 1014.7 0.2
26/10:30pm 13.1 11.8 11.2 88 1.0 W 9 9 5 5 1015.0 1015.0 0.2
26/10:00pm 13.0 12.0 10.9 87 1.1 W 7 9 4 5 1014.9 1014.9 0.2
26/09:30pm 13.3 11.9 10.8 85 1.3 W 9 9 5 5 1015.1 1015.1 0.2
26/09:00pm 13.7 12.8 11.2 85 1.3 W 7 9 4 5 1015.3 1015.3 0.2
26/08:30pm 13.8 12.6 11.5 86 1.2 WSW 9 9 5 5 1015.1 1015.1 0.2
26/08:00pm 14.1 13.2 11.4 84 1.4 W 7 9 4 5 1014.4 1014.3 0.2
26/07:30pm 14.5 13.6 11.3 81 1.7 WSW 7 9 4 5 1014.1 1014.0 0.2
26/07:00pm 14.9 14.0 10.7 76 2.2 S 6 7 3 4 1013.3 1013.2 0.2
26/06:30pm 15.3 13.9 10.9 75 2.3 SW 9 11 5 6 1013.5 1013.4 0.2
26/06:00pm 15.9 13.7 10.7 71 2.8 SSW 13 15 7 8 1013.1 1013.0 0.2
26/05:30pm 16.4 13.1 10.9 70 3.0 SSW 19 24 10 13 1012.8 1012.7 0.2
26/05:00pm 17.7 14.6 10.3 62 4.0 WSW 17 24 9 13 1012.4 1012.3 0.2
26/04:30pm 17.8 14.2 9.9 60 4.2 W 19 26 10 14 1012.0 1011.9 0.2
26/04:00pm 18.3 14.6 10.2 59 4.3 SW 20 26 11 14 1012.5 1012.4 0.2
26/03:30pm 19.1 15.9 9.9 55 4.9 WSW 17 24 9 13 1011.8 1011.7 0.2
26/03:00pm 18.9 15.8 10.2 57 4.7 W 17 24 9 13 1011.7 1011.6 0.2
26/02:30pm 18.9 16.3 10.7 59 4.5 WSW 15 20 8 11 1011.7 1011.6 0.2
26/02:00pm 18.6 15.6 10.7 60 4.3 SW 17 24 9 13 1011.6 1011.5 0.2
26/01:30pm 18.4 15.3 10.3 59 4.4 SW 17 22 9 12 1011.5 1011.4 0.2
26/01:00pm 18.0 15.8 10.9 63 3.8 SW 13 20 7 11 1011.7 1011.6 0.2
26/12:30pm 18.5 15.7 11.3 63 3.9 WSW 17 24 9 13 1012.2 1012.1 0.2
26/12:00pm 18.3 15.6 11.8 66 3.6 SW 17 22 9 12 1012.2 1012.1 0.2
26/11:30am 17.6 15.0 12.1 70 3.0 SW 17 24 9 13 1012.6 1012.5 0.0
26/11:00am 17.0 14.0 12.1 73 2.7 SSW 19 24 10 13 1012.6 1012.5 0.0
26/10:30am 16.1 13.5 12.1 77 2.2 SW 17 22 9 12 1012.7 1012.6 0.0
26/10:00am 15.7 13.2 12.3 80 1.9 SW 17 20 9 11 1012.9 1012.8 0.0
26/09:30am 15.3 13.3 12.6 84 1.5 WSW 15 20 8 11 1012.5 1012.4 0.0
26/09:00am 14.7 11.9 12.6 87 1.2 WSW 19 24 10 13 1012.8 1012.7 1.8
26/08:30am 14.4 12.0 12.8 90 0.9 WSW 17 26 9 14 1012.7 1012.6 1.8
26/08:00am 13.5 12.2 12.6 94 0.5 W 11 15 6 8 1012.2 1012.1 1.8
26/07:30am 13.1 11.8 12.5 96 0.3 WSW 11 15 6 8 1011.5 1011.4 1.8
26/07:00am 12.9 11.9 12.3 96 0.3 WSW 9 13 5 7 1011.0 1010.9 1.8
26/06:30am 13.1 11.7 12.2 94 0.5 WSW 11 13 6 7 1011.2 1011.1 1.8
26/06:00am 13.6 11.9 12.5 93 0.6 SW 13 17 7 9 1011.1 1011.0 1.8
26/05:30am 14.3 12.0 13.0 92 0.7 SW 17 22 9 12 1010.6 1010.5 1.8
26/05:24am 14.2 11.9 13.1 93 0.6 SW 17 22 9 12 1010.6 1010.5 1.8
26/05:02am 14.2 12.5 13.7 97 0.3 WSW 15 19 8 10 1010.6 1010.5 1.8
26/05:00am 14.0 12.6 13.4 96 0.3 WSW 13 19 7 10 1010.5 1010.4 1.8
26/04:30am 14.1 13.1 13.3 95 0.4 WSW 11 13 6 7 1010.5 1010.4 1.8
26/04:00am 14.7 13.8 13.6 93 0.6 W 11 15 6 8 1010.4 1010.3 1.8
26/03:30am 15.2 14.0 13.9 92 0.7 WNW 13 17 7 9 1010.5 1010.4 1.8
26/03:00am 15.0 14.1 13.7 92 0.7 WNW 11 15 6 8 1010.4 1010.3 1.8
26/02:30am 14.8 13.4 13.3 91 0.8 WNW 13 17 7 9 1010.6 1010.5 1.8
26/02:00am 14.5 13.9 13.4 93 0.6 WNW 9 11 5 6 1010.7 1010.6 1.8
26/01:30am 14.2 14.1 13.2 94 0.6 W 6 7 3 4 1010.7 1010.6 1.8
26/01:00am 14.0 14.2 13.1 94 0.5 WNW 4 7 2 4 1010.2 1010.1 1.8
26/12:30am 14.1 13.7 13.0 93 0.6 NNW 7 11 4 6 1010.3 1010.2 1.8
26/12:00am 14.1 13.4 13.1 94 0.6 N 9 13 5 7 1010.5 1010.4 1.6
 
Date/Time
CST
Temp
°C
App
Temp
°C
Dew
Point
Rel
Hum
%
Delta-T
°C
Wind Press
QNH
hPa
Press
MSL
hPa
Rain
since 9 am
mm
Dir
 
Spd
km/h
Gust
km/h
Spd
kts
Gust
kts
25/11:30pm 14.2 13.5 13.1 93 0.6 NNE 9 13 5 7 1010.4 1010.3 1.6
25/11:00pm 14.3 13.5 13.0 92 0.7 NNE 9 13 5 7 1010.3 1010.2 1.6
25/10:30pm 14.5 13.4 13.0 91 0.8 NNE 11 15 6 8 1010.3 1010.2 1.6
25/10:00pm 14.7 12.4 13.1 90 0.9 NNE 17 20 9 11 1010.7 1010.6 1.6
25/09:30pm 14.8 14.5 12.8 88 1.1 NNE 6 13 3 7 1010.2 1010.1 1.4
25/09:00pm 14.8 13.7 13.0 89 1.0 NE 11 15 6 8 1010.1 1010.0 1.4
25/08:30pm 14.7 14.0 13.1 90 0.9 ENE 9 17 5 9 1010.1 1010.0 1.4
25/08:00pm 15.0 14.7 13.4 90 0.9 NE 7 9 4 5 1011.3 1011.2 1.4
25/07:30pm 15.4 14.3 13.2 87 1.2 NE 11 20 6 11 1010.0 1009.9 0.8
25/07:00pm 15.4 14.7 13.1 86 1.3 ENE 9 13 5 7 1009.6 1009.5 0.8
25/06:30pm 15.5 14.0 13.0 85 1.4 E 13 19 7 10 1009.2 1009.1 0.8
25/06:00pm 15.7 15.4 13.2 85 1.4 E 7 9 4 5 1010.1 1010.0 0.8
25/05:30pm 15.9 15.6 12.8 82 1.7 ESE 6 7 3 4 1010.0 1009.9 0.6
25/05:00pm 16.2 15.2 12.4 78 2.1 SE 9 13 5 7 1009.5 1009.4 0.6
25/04:30pm 16.6 14.9 12.6 77 2.2 NE 13 17 7 9 1009.5 1009.4 0.6
25/04:00pm 16.6 15.2 13.5 82 1.8 NE 13 19 7 10 1009.1 1009.0 0.6
25/03:30pm 16.9 15.3 12.8 77 2.3 NE 13 17 7 9 1010.0 1009.9 0.4
25/03:00pm 18.0 16.9 11.8 67 3.4 NE 9 13 5 7 1009.7 1009.6 0.2
25/02:30pm 18.0 16.9 12.0 68 3.3 NE 9 13 5 7 1009.8 1009.7 0.2
25/02:00pm 17.4 15.7 12.3 72 2.8 NNE 13 19 7 10 1009.8 1009.7 0.2
25/01:30pm 17.0 15.1 11.9 72 2.8 NNE 13 17 7 9 1010.4 1010.3 0.2
25/01:00pm 16.9 14.9 11.4 70 3.0 NNE 13 17 7 9 1010.7 1010.6 0.2
25/12:30pm 16.7 15.1 10.3 66 3.4 NE 9 13 5 7 1011.3 1011.2 0.2
25/12:00pm 16.0 14.8 10.3 69 3.0 NE 7 13 4 7 1012.0 1011.9 0.2
25/11:30am 14.9 12.2 10.5 75 2.3 NE 15 20 8 11 1012.5 1012.4 0.2
25/11:00am 14.7 11.8 9.7 72 2.6 NE 15 19 8 10 1013.0 1012.9 0.0
25/10:30am 14.1 11.0 8.9 71 2.6 NE 15 20 8 11 1013.4 1013.3 0.0
25/10:00am 13.7 10.8 9.7 77 2.1 NE 15 20 8 11 1013.5 1013.4 0.0
25/09:30am 13.4 10.0 9.3 76 2.1 NE 17 20 9 11 1013.6 1013.5 0.0
25/09:00am 12.7 10.0 8.8 77 2.0 NE 13 17 7 9 1014.1 1014.0 1.2
25/08:30am 12.3 10.9 9.0 80 1.7 NNE 6 11 3 6 1014.8 1014.7 1.0
25/08:00am 12.9 9.9 7.6 70 2.6 NNE 13 17 7 9 1014.7 1014.6 0.2
25/07:30am 14.0 10.6 5.9 58 3.9 NNE 13 17 7 9 1014.6 1014.5 0.0
25/07:00am 15.2 10.7 4.3 48 5.1 N 17 20 9 11 1014.6 1014.5 0.0
25/06:30am 15.3 10.8 4.4 48 5.1 NNE 17 22 9 12 1013.8 1013.7 0.0
25/06:00am 15.7 10.2 3.8 45 5.5 NNE 22 28 12 15 1013.2 1013.1 0.0
25/05:30am 15.6 10.1 4.0 46 5.4 NNE 22 30 12 16 1012.8 1012.7 0.0
25/05:00am 16.4 10.8 0.9 35 6.8 NNE 20 30 11 16 1013.3 1013.2 0.0
25/04:30am 16.5 10.8 0.6 34 6.9 NNE 20 28 11 15 1013.5 1013.4 0.0
25/04:00am 16.8 10.6 -0.4 31 7.4 N 22 33 12 18 1013.7 1013.6 0.0
25/03:30am 16.7 10.5 -0.5 31 7.3 NNE 22 30 12 16 1013.9 1013.8 0.0
25/03:00am 16.8 10.2 -0.4 31 7.4 NNE 24 32 13 17 1014.2 1014.1 0.0
25/02:30am 16.9 9.9 -0.8 30 7.5 NNE 26 37 14 20 1014.3 1014.2 0.0
25/02:00am 16.7 11.0 -0.9 30 7.4 NNE 19 26 10 14 1014.9 1014.9 0.0
25/01:30am 16.3 11.0 -0.4 32 7.1 NNE 17 20 9 11 1015.1 1015.1 0.0
25/01:00am 16.1 10.9 -0.2 33 7.0 NNE 17 20 9 11 1015.2 1015.2 0.0
25/12:30am 16.3 11.0 -0.4 32 7.1 NNE 17 24 9 13 1015.6 1015.6 0.0
25/12:00am 16.2 11.0 -0.1 33 7.0 NNE 17 20 9 11 1016.3 1016.2 0.0
 
Date/Time
CST
Temp
°C
App
Temp
°C
Dew
Point
Rel
Hum
%
Delta-T
°C
Wind Press
QNH
hPa
Press
MSL
hPa
Rain
since 9 am
mm
Dir
 
Spd
km/h
Gust
km/h
Spd
kts
Gust
kts
24/11:30pm 16.1 10.6 0.7 35 6.7 NNE 19 22 10 12 1016.4 1016.3 0.0
24/11:00pm 15.5 10.8 0.9 37 6.3 NNE 15 19 8 10 1016.8 1016.7 0.0
24/10:30pm 15.5 11.2 0.9 37 6.3 NNE 13 19 7 10 1017.2 1017.1 0.0
24/10:00pm 15.4 11.0 0.4 36 6.4 NNE 13 17 7 9 1017.3 1017.2 0.0
24/09:30pm 15.4 10.9 0.0 35 6.5 NNE 13 17 7 9 1017.3 1017.2 0.0
24/09:00pm 15.7 11.2 -0.5 33 6.8 NNE 13 15 7 8 1017.5 1017.4 0.0
24/08:30pm 16.0 11.4 -0.7 32 7.0 NNE 13 15 7 8 1017.7 1017.6 0.0
24/08:00pm 15.9 11.7 -1.2 31 7.1 NNE 11 15 6 8 1017.7 1017.6 0.0
24/07:30pm 15.9 11.6 -1.6 30 7.2 NNE 11 13 6 7 1017.5 1017.4 0.0
24/07:00pm 16.3 12.3 -2.2 28 7.6 NNE 9 11 5 6 1017.5 1017.4 0.0
24/06:30pm 17.1 13.1 -2.5 26 8.0 N 9 13 5 7 1017.6 1017.5 0.0
24/06:00pm 18.4 13.8 -3.7 22 8.9 NNE 11 15 6 8 1017.3 1017.2 0.0
24/05:30pm 19.7 14.0 -3.9 20 9.6 N 17 26 9 14 1017.3 1017.2 0.0
24/05:00pm 20.8 14.4 -5.1 17 10.5 N 20 28 11 15 1017.5 1017.4 0.0
24/04:30pm 21.6 14.5 -4.5 17 10.7 N 24 32 13 17 1017.3 1017.2 0.0
24/04:00pm 22.0 14.8 -4.9 16 11.0 NNE 24 32 13 17 1017.4 1017.3 0.0
24/03:30pm 22.1 14.2 -4.9 16 11.1 N 28 39 15 21 1017.4 1017.3 0.0
24/03:00pm 22.0 14.5 -4.1 17 10.8 NNE 26 35 14 19 1017.7 1017.6 0.0
24/02:30pm 21.9 14.5 -3.5 18 10.7 N 26 32 14 17 1018.0 1017.9 0.0

Other Formats:

Comma delimited format used in spreadsheet applications
http://www.bom.gov.au/fwo/IDS60801/IDS60801.95658.axf

JavaScript Object Notation format (JSON) in row-major order
http://www.bom.gov.au/fwo/IDS60801/IDS60801.95658.json